sensor_id;sensor_type;location;lat;lon;timestamp;P1;durP1;ratioP1;P2;durP2;ratioP2
14294;SDS011;7231;59.370;18.016;2023-12-29T00:01:16;1.87;;;0.93;;
14294;SDS011;7231;59.370;18.016;2023-12-29T00:03:46;2.43;;;1.30;;
14294;SDS011;7231;59.370;18.016;2023-12-29T00:06:14;1.40;;;1.00;;
14294;SDS011;7231;59.370;18.016;2023-12-29T00:08:42;1.47;;;1.00;;
14294;SDS011;7231;59.370;18.016;2023-12-29T00:11:16;1.13;;;1.00;;
14294;SDS011;7231;59.370;18.016;2023-12-29T00:13:44;1.53;;;1.00;;
14294;SDS011;7231;59.370;18.016;2023-12-29T00:16:12;3.03;;;0.80;;
14294;SDS011;7231;59.370;18.016;2023-12-29T00:18:41;1.13;;;0.73;;
14294;SDS011;7231;59.370;18.016;2023-12-29T00:21:11;1.27;;;0.80;;
14294;SDS011;7231;59.370;18.016;2023-12-29T00:23:40;1.87;;;1.33;;
14294;SDS011;7231;59.370;18.016;2023-12-29T00:26:09;0.97;;;0.70;;
14294;SDS011;7231;59.370;18.016;2023-12-29T00:28:39;1.70;;;1.20;;
14294;SDS011;7231;59.370;18.016;2023-12-29T00:31:08;1.70;;;0.87;;
14294;SDS011;7231;59.370;18.016;2023-12-29T00:33:36;1.47;;;1.00;;
14294;SDS011;7231;59.370;18.016;2023-12-29T00:36:05;1.70;;;0.80;;
14294;SDS011;7231;59.370;18.016;2023-12-29T00:38:35;1.23;;;1.13;;
14294;SDS011;7231;59.370;18.016;2023-12-29T00:41:04;1.10;;;0.90;;
14294;SDS011;7231;59.370;18.016;2023-12-29T00:43:33;1.20;;;0.87;;
14294;SDS011;7231;59.370;18.016;2023-12-29T00:46:01;1.17;;;0.70;;
14294;SDS011;7231;59.370;18.016;2023-12-29T00:48:30;2.27;;;1.00;;
14294;SDS011;7231;59.370;18.016;2023-12-29T00:51:00;2.23;;;1.00;;
14294;SDS011;7231;59.370;18.016;2023-12-29T00:53:29;1.40;;;1.20;;
14294;SDS011;7231;59.370;18.016;2023-12-29T00:56:00;2.90;;;1.23;;
14294;SDS011;7231;59.370;18.016;2023-12-29T00:58:28;2.03;;;1.40;;
14294;SDS011;7231;59.370;18.016;2023-12-29T01:00:56;4.33;;;1.73;;
14294;SDS011;7231;59.370;18.016;2023-12-29T01:03:24;4.03;;;1.70;;
14294;SDS011;7231;59.370;18.016;2023-12-29T01:05:52;3.13;;;1.80;;
14294;SDS011;7231;59.370;18.016;2023-12-29T01:08:21;2.33;;;1.67;;
14294;SDS011;7231;59.370;18.016;2023-12-29T01:10:49;2.53;;;1.67;;
14294;SDS011;7231;59.370;18.016;2023-12-29T01:13:18;4.13;;;1.63;;
14294;SDS011;7231;59.370;18.016;2023-12-29T01:15:47;2.70;;;1.60;;
14294;SDS011;7231;59.370;18.016;2023-12-29T01:18:15;5.70;;;3.97;;
14294;SDS011;7231;59.370;18.016;2023-12-29T01:20:43;3.53;;;1.70;;
14294;SDS011;7231;59.370;18.016;2023-12-29T01:23:11;2.93;;;1.67;;
14294;SDS011;7231;59.370;18.016;2023-12-29T01:25:39;3.27;;;1.67;;
14294;SDS011;7231;59.370;18.016;2023-12-29T01:28:07;3.63;;;2.03;;
14294;SDS011;7231;59.370;18.016;2023-12-29T01:30:37;2.00;;;1.40;;
14294;SDS011;7231;59.370;18.016;2023-12-29T01:33:06;3.40;;;1.70;;
14294;SDS011;7231;59.370;18.016;2023-12-29T01:35:34;4.83;;;1.80;;
14294;SDS011;7231;59.370;18.016;2023-12-29T01:38:03;3.00;;;1.80;;
14294;SDS011;7231;59.370;18.016;2023-12-29T01:40:32;2.40;;;1.40;;
14294;SDS011;7231;59.370;18.016;2023-12-29T01:43:00;2.00;;;1.53;;
14294;SDS011;7231;59.370;18.016;2023-12-29T01:45:28;2.67;;;1.33;;
14294;SDS011;7231;59.370;18.016;2023-12-29T01:48:00;1.70;;;1.50;;
14294;SDS011;7231;59.370;18.016;2023-12-29T01:50:30;3.93;;;1.80;;
14294;SDS011;7231;59.370;18.016;2023-12-29T01:52:59;4.53;;;2.07;;
14294;SDS011;7231;59.370;18.016;2023-12-29T01:55:29;2.87;;;2.23;;
14294;SDS011;7231;59.370;18.016;2023-12-29T01:57:57;3.40;;;2.03;;
14294;SDS011;7231;59.370;18.016;2023-12-29T02:00:26;5.10;;;2.30;;
14294;SDS011;7231;59.370;18.016;2023-12-29T02:02:55;3.87;;;2.40;;
14294;SDS011;7231;59.370;18.016;2023-12-29T02:05:24;3.40;;;2.20;;
14294;SDS011;7231;59.370;18.016;2023-12-29T02:07:57;4.60;;;2.67;;
14294;SDS011;7231;59.370;18.016;2023-12-29T02:10:27;5.50;;;2.97;;
14294;SDS011;7231;59.370;18.016;2023-12-29T02:12:55;4.47;;;3.30;;
14294;SDS011;7231;59.370;18.016;2023-12-29T02:15:26;5.20;;;3.40;;
14294;SDS011;7231;59.370;18.016;2023-12-29T02:17:56;4.63;;;3.10;;
14294;SDS011;7231;59.370;18.016;2023-12-29T02:20:30;4.50;;;3.00;;
14294;SDS011;7231;59.370;18.016;2023-12-29T02:22:59;6.20;;;3.47;;
14294;SDS011;7231;59.370;18.016;2023-12-29T02:25:29;4.23;;;3.40;;
14294;SDS011;7231;59.370;18.016;2023-12-29T02:27:58;6.40;;;3.20;;
14294;SDS011;7231;59.370;18.016;2023-12-29T02:30:32;7.13;;;3.77;;
14294;SDS011;7231;59.370;18.016;2023-12-29T02:33:10;6.03;;;3.40;;
14294;SDS011;7231;59.370;18.016;2023-12-29T02:35:42;4.80;;;3.13;;
14294;SDS011;7231;59.370;18.016;2023-12-29T02:38:13;6.03;;;3.83;;
14294;SDS011;7231;59.370;18.016;2023-12-29T02:40:42;4.53;;;3.43;;
14294;SDS011;7231;59.370;18.016;2023-12-29T02:43:10;8.23;;;3.50;;
14294;SDS011;7231;59.370;18.016;2023-12-29T02:45:39;4.80;;;3.60;;
14294;SDS011;7231;59.370;18.016;2023-12-29T02:48:07;4.83;;;3.30;;
14294;SDS011;7231;59.370;18.016;2023-12-29T02:50:35;6.00;;;3.20;;
14294;SDS011;7231;59.370;18.016;2023-12-29T02:53:03;5.23;;;3.20;;
14294;SDS011;7231;59.370;18.016;2023-12-29T02:55:32;3.90;;;3.00;;
14294;SDS011;7231;59.370;18.016;2023-12-29T02:58:01;4.73;;;2.90;;
14294;SDS011;7231;59.370;18.016;2023-12-29T03:00:30;5.00;;;2.90;;
14294;SDS011;7231;59.370;18.016;2023-12-29T03:02:59;6.73;;;3.17;;
14294;SDS011;7231;59.370;18.016;2023-12-29T03:05:27;4.53;;;3.17;;
14294;SDS011;7231;59.370;18.016;2023-12-29T03:07:55;12.57;;;3.43;;
14294;SDS011;7231;59.370;18.016;2023-12-29T03:10:24;7.43;;;3.80;;
14294;SDS011;7231;59.370;18.016;2023-12-29T03:12:52;7.67;;;3.47;;
14294;SDS011;7231;59.370;18.016;2023-12-29T03:15:22;9.70;;;3.20;;
14294;SDS011;7231;59.370;18.016;2023-12-29T03:17:50;9.67;;;2.80;;
14294;SDS011;7231;59.370;18.016;2023-12-29T03:20:18;5.97;;;3.03;;
14294;SDS011;7231;59.370;18.016;2023-12-29T03:22:46;7.23;;;3.03;;
14294;SDS011;7231;59.370;18.016;2023-12-29T03:25:14;4.93;;;2.63;;
14294;SDS011;7231;59.370;18.016;2023-12-29T03:27:43;8.53;;;2.63;;
14294;SDS011;7231;59.370;18.016;2023-12-29T03:30:11;4.50;;;2.93;;
14294;SDS011;7231;59.370;18.016;2023-12-29T03:32:41;4.83;;;2.90;;
14294;SDS011;7231;59.370;18.016;2023-12-29T03:35:09;4.10;;;3.13;;
14294;SDS011;7231;59.370;18.016;2023-12-29T03:37:37;6.53;;;3.13;;
14294;SDS011;7231;59.370;18.016;2023-12-29T03:40:06;6.73;;;3.10;;
14294;SDS011;7231;59.370;18.016;2023-12-29T03:42:35;8.27;;;3.73;;
14294;SDS011;7231;59.370;18.016;2023-12-29T03:45:04;9.53;;;3.40;;
14294;SDS011;7231;59.370;18.016;2023-12-29T03:47:32;6.27;;;3.53;;
14294;SDS011;7231;59.370;18.016;2023-12-29T03:50:03;5.50;;;3.60;;
14294;SDS011;7231;59.370;18.016;2023-12-29T03:52:33;9.83;;;4.60;;
14294;SDS011;7231;59.370;18.016;2023-12-29T03:55:01;8.63;;;3.90;;
14294;SDS011;7231;59.370;18.016;2023-12-29T03:57:29;9.33;;;3.60;;
14294;SDS011;7231;59.370;18.016;2023-12-29T03:59:57;12.17;;;4.27;;
14294;SDS011;7231;59.370;18.016;2023-12-29T04:02:25;11.33;;;4.50;;
14294;SDS011;7231;59.370;18.016;2023-12-29T04:04:53;9.60;;;4.37;;
14294;SDS011;7231;59.370;18.016;2023-12-29T04:07:23;13.30;;;5.00;;
14294;SDS011;7231;59.370;18.016;2023-12-29T04:09:51;7.93;;;4.53;;
14294;SDS011;7231;59.370;18.016;2023-12-29T04:12:20;7.97;;;4.37;;
14294;SDS011;7231;59.370;18.016;2023-12-29T04:14:48;9.70;;;5.13;;
14294;SDS011;7231;59.370;18.016;2023-12-29T04:17:16;11.03;;;5.33;;
14294;SDS011;7231;59.370;18.016;2023-12-29T04:19:44;10.07;;;4.90;;
14294;SDS011;7231;59.370;18.016;2023-12-29T04:22:12;10.00;;;5.03;;
14294;SDS011;7231;59.370;18.016;2023-12-29T04:24:42;10.87;;;5.50;;
14294;SDS011;7231;59.370;18.016;2023-12-29T04:27:10;11.83;;;5.50;;
14294;SDS011;7231;59.370;18.016;2023-12-29T04:29:38;14.63;;;5.17;;
14294;SDS011;7231;59.370;18.016;2023-12-29T04:32:06;9.10;;;5.33;;
14294;SDS011;7231;59.370;18.016;2023-12-29T04:34:34;8.33;;;4.27;;
14294;SDS011;7231;59.370;18.016;2023-12-29T04:37:02;9.80;;;5.00;;
14294;SDS011;7231;59.370;18.016;2023-12-29T04:39:31;8.63;;;4.73;;
14294;SDS011;7231;59.370;18.016;2023-12-29T04:42:00;8.60;;;4.50;;
14294;SDS011;7231;59.370;18.016;2023-12-29T04:44:29;6.40;;;4.27;;
14294;SDS011;7231;59.370;18.016;2023-12-29T04:46:57;12.10;;;4.83;;
14294;SDS011;7231;59.370;18.016;2023-12-29T04:49:25;11.50;;;4.43;;
14294;SDS011;7231;59.370;18.016;2023-12-29T04:51:53;7.37;;;4.30;;
14294;SDS011;7231;59.370;18.016;2023-12-29T04:54:22;9.13;;;4.17;;
14294;SDS011;7231;59.370;18.016;2023-12-29T04:56:51;12.17;;;4.77;;
14294;SDS011;7231;59.370;18.016;2023-12-29T04:59:20;8.60;;;4.50;;
14294;SDS011;7231;59.370;18.016;2023-12-29T05:01:48;11.77;;;4.97;;
14294;SDS011;7231;59.370;18.016;2023-12-29T05:04:17;7.40;;;3.87;;
14294;SDS011;7231;59.370;18.016;2023-12-29T05:06:45;8.73;;;4.03;;
14294;SDS011;7231;59.370;18.016;2023-12-29T05:09:13;8.27;;;4.13;;
14294;SDS011;7231;59.370;18.016;2023-12-29T05:11:41;5.03;;;3.57;;
14294;SDS011;7231;59.370;18.016;2023-12-29T05:14:09;6.13;;;3.30;;
14294;SDS011;7231;59.370;18.016;2023-12-29T05:16:38;4.70;;;2.97;;
14294;SDS011;7231;59.370;18.016;2023-12-29T05:19:07;4.97;;;2.83;;
14294;SDS011;7231;59.370;18.016;2023-12-29T05:21:36;5.43;;;2.87;;
14294;SDS011;7231;59.370;18.016;2023-12-29T05:24:04;5.80;;;2.60;;
14294;SDS011;7231;59.370;18.016;2023-12-29T05:26:32;6.87;;;2.87;;
14294;SDS011;7231;59.370;18.016;2023-12-29T05:29:01;6.47;;;3.00;;
14294;SDS011;7231;59.370;18.016;2023-12-29T05:31:29;8.03;;;2.93;;
14294;SDS011;7231;59.370;18.016;2023-12-29T05:33:59;4.70;;;2.37;;
14294;SDS011;7231;59.370;18.016;2023-12-29T05:36:27;6.40;;;2.33;;
14294;SDS011;7231;59.370;18.016;2023-12-29T05:38:55;4.87;;;2.70;;
14294;SDS011;7231;59.370;18.016;2023-12-29T05:41:23;5.77;;;2.30;;
14294;SDS011;7231;59.370;18.016;2023-12-29T05:43:51;3.83;;;2.40;;
14294;SDS011;7231;59.370;18.016;2023-12-29T05:46:20;4.60;;;2.30;;
14294;SDS011;7231;59.370;18.016;2023-12-29T05:48:48;3.30;;;2.23;;
14294;SDS011;7231;59.370;18.016;2023-12-29T05:51:19;5.13;;;2.50;;
14294;SDS011;7231;59.370;18.016;2023-12-29T05:53:47;5.33;;;2.60;;
14294;SDS011;7231;59.370;18.016;2023-12-29T05:56:15;3.10;;;2.00;;
14294;SDS011;7231;59.370;18.016;2023-12-29T05:58:43;4.83;;;1.90;;
14294;SDS011;7231;59.370;18.016;2023-12-29T06:01:11;5.17;;;2.00;;
14294;SDS011;7231;59.370;18.016;2023-12-29T06:03:40;4.70;;;2.00;;
14294;SDS011;7231;59.370;18.016;2023-12-29T06:06:08;4.90;;;2.03;;
14294;SDS011;7231;59.370;18.016;2023-12-29T06:08:38;4.40;;;2.10;;
14294;SDS011;7231;59.370;18.016;2023-12-29T06:11:06;3.67;;;1.70;;
14294;SDS011;7231;59.370;18.016;2023-12-29T06:13:34;5.13;;;1.67;;
14294;SDS011;7231;59.370;18.016;2023-12-29T06:16:03;4.73;;;1.70;;
14294;SDS011;7231;59.370;18.016;2023-12-29T06:18:31;2.90;;;1.50;;
14294;SDS011;7231;59.370;18.016;2023-12-29T06:21:01;2.37;;;1.40;;
14294;SDS011;7231;59.370;18.016;2023-12-29T06:23:29;2.37;;;1.40;;
14294;SDS011;7231;59.370;18.016;2023-12-29T06:25:59;1.70;;;1.10;;
14294;SDS011;7231;59.370;18.016;2023-12-29T06:28:27;2.73;;;1.63;;
14294;SDS011;7231;59.370;18.016;2023-12-29T06:30:58;3.20;;;1.40;;
14294;SDS011;7231;59.370;18.016;2023-12-29T06:33:27;3.30;;;1.70;;
14294;SDS011;7231;59.370;18.016;2023-12-29T06:35:55;6.60;;;2.20;;
14294;SDS011;7231;59.370;18.016;2023-12-29T06:38:23;3.87;;;1.87;;
14294;SDS011;7231;59.370;18.016;2023-12-29T06:40:51;5.20;;;3.07;;
14294;SDS011;7231;59.370;18.016;2023-12-29T06:43:20;4.93;;;2.83;;
14294;SDS011;7231;59.370;18.016;2023-12-29T06:45:48;5.40;;;2.57;;
14294;SDS011;7231;59.370;18.016;2023-12-29T06:48:16;2.93;;;2.00;;
14294;SDS011;7231;59.370;18.016;2023-12-29T06:50:46;3.40;;;2.37;;
14294;SDS011;7231;59.370;18.016;2023-12-29T06:53:15;3.93;;;2.80;;
14294;SDS011;7231;59.370;18.016;2023-12-29T06:55:43;6.23;;;2.40;;
14294;SDS011;7231;59.370;18.016;2023-12-29T06:58:11;4.00;;;2.67;;
14294;SDS011;7231;59.370;18.016;2023-12-29T07:00:41;3.77;;;2.47;;
14294;SDS011;7231;59.370;18.016;2023-12-29T07:03:12;5.47;;;3.13;;
14294;SDS011;7231;59.370;18.016;2023-12-29T07:05:40;6.17;;;3.93;;
14294;SDS011;7231;59.370;18.016;2023-12-29T07:08:12;5.87;;;3.67;;
14294;SDS011;7231;59.370;18.016;2023-12-29T07:10:40;11.03;;;3.67;;
14294;SDS011;7231;59.370;18.016;2023-12-29T07:13:09;10.73;;;3.77;;
14294;SDS011;7231;59.370;18.016;2023-12-29T07:15:37;9.50;;;3.77;;
14294;SDS011;7231;59.370;18.016;2023-12-29T07:18:07;9.10;;;3.93;;
14294;SDS011;7231;59.370;18.016;2023-12-29T07:20:35;7.00;;;3.60;;
14294;SDS011;7231;59.370;18.016;2023-12-29T07:23:03;8.37;;;4.33;;
14294;SDS011;7231;59.370;18.016;2023-12-29T07:25:31;8.47;;;4.40;;
14294;SDS011;7231;59.370;18.016;2023-12-29T07:27:59;10.20;;;4.03;;
14294;SDS011;7231;59.370;18.016;2023-12-29T07:30:28;11.83;;;4.40;;
14294;SDS011;7231;59.370;18.016;2023-12-29T07:32:56;10.57;;;4.13;;
14294;SDS011;7231;59.370;18.016;2023-12-29T07:35:26;12.67;;;4.50;;
14294;SDS011;7231;59.370;18.016;2023-12-29T07:37:54;16.13;;;5.33;;
14294;SDS011;7231;59.370;18.016;2023-12-29T07:40:22;10.77;;;6.23;;
14294;SDS011;7231;59.370;18.016;2023-12-29T07:42:51;15.63;;;6.07;;
14294;SDS011;7231;59.370;18.016;2023-12-29T07:45:19;16.87;;;6.07;;
14294;SDS011;7231;59.370;18.016;2023-12-29T07:47:47;16.17;;;6.60;;
14294;SDS011;7231;59.370;18.016;2023-12-29T07:50:15;18.43;;;6.53;;
14294;SDS011;7231;59.370;18.016;2023-12-29T07:52:45;15.97;;;6.30;;
14294;SDS011;7231;59.370;18.016;2023-12-29T07:55:13;16.50;;;6.43;;
14294;SDS011;7231;59.370;18.016;2023-12-29T07:57:43;14.10;;;6.20;;
14294;SDS011;7231;59.370;18.016;2023-12-29T08:00:14;16.07;;;6.73;;
14294;SDS011;7231;59.370;18.016;2023-12-29T08:02:42;19.47;;;6.57;;
14294;SDS011;7231;59.370;18.016;2023-12-29T08:05:11;14.15;;;5.80;;
14294;SDS011;7231;59.370;18.016;2023-12-29T08:07:41;12.70;;;5.30;;
14294;SDS011;7231;59.370;18.016;2023-12-29T08:10:10;10.52;;;5.32;;
14294;SDS011;7231;59.370;18.016;2023-12-29T08:12:39;12.48;;;5.15;;
14294;SDS011;7231;59.370;18.016;2023-12-29T08:15:07;11.80;;;5.50;;
14294;SDS011;7231;59.370;18.016;2023-12-29T08:17:36;14.17;;;5.00;;
14294;SDS011;7231;59.370;18.016;2023-12-29T08:20:05;10.07;;;4.70;;
14294;SDS011;7231;59.370;18.016;2023-12-29T08:22:34;11.02;;;3.95;;
14294;SDS011;7231;59.370;18.016;2023-12-29T08:25:03;10.38;;;3.90;;
14294;SDS011;7231;59.370;18.016;2023-12-29T08:27:33;10.85;;;3.63;;
14294;SDS011;7231;59.370;18.016;2023-12-29T08:30:02;9.95;;;3.53;;
14294;SDS011;7231;59.370;18.016;2023-12-29T08:32:30;10.73;;;3.25;;
14294;SDS011;7231;59.370;18.016;2023-12-29T08:35:00;9.00;;;2.78;;
14294;SDS011;7231;59.370;18.016;2023-12-29T08:37:28;8.73;;;2.80;;
14294;SDS011;7231;59.370;18.016;2023-12-29T08:39:57;10.45;;;3.28;;
14294;SDS011;7231;59.370;18.016;2023-12-29T08:42:27;10.13;;;2.80;;
14294;SDS011;7231;59.370;18.016;2023-12-29T08:44:58;9.80;;;3.10;;
14294;SDS011;7231;59.370;18.016;2023-12-29T08:47:27;5.88;;;2.63;;
14294;SDS011;7231;59.370;18.016;2023-12-29T08:49:55;10.68;;;2.75;;
14294;SDS011;7231;59.370;18.016;2023-12-29T08:52:23;9.30;;;2.25;;
14294;SDS011;7231;59.370;18.016;2023-12-29T08:54:51;6.18;;;2.75;;
14294;SDS011;7231;59.370;18.016;2023-12-29T08:57:20;9.55;;;2.80;;
14294;SDS011;7231;59.370;18.016;2023-12-29T08:59:49;5.28;;;2.20;;
14294;SDS011;7231;59.370;18.016;2023-12-29T09:02:18;6.70;;;2.40;;
14294;SDS011;7231;59.370;18.016;2023-12-29T09:04:47;6.40;;;2.20;;
14294;SDS011;7231;59.370;18.016;2023-12-29T09:07:15;10.30;;;2.28;;
14294;SDS011;7231;59.370;18.016;2023-12-29T09:09:43;11.82;;;3.10;;
14294;SDS011;7231;59.370;18.016;2023-12-29T09:12:11;9.32;;;2.72;;
14294;SDS011;7231;59.370;18.016;2023-12-29T09:14:40;10.75;;;3.10;;
14294;SDS011;7231;59.370;18.016;2023-12-29T09:17:08;7.78;;;2.22;;
14294;SDS011;7231;59.370;18.016;2023-12-29T09:19:37;12.35;;;2.30;;
14294;SDS011;7231;59.370;18.016;2023-12-29T09:22:06;10.02;;;2.40;;
14294;SDS011;7231;59.370;18.016;2023-12-29T09:24:34;9.45;;;2.17;;
14294;SDS011;7231;59.370;18.016;2023-12-29T09:27:03;5.47;;;1.50;;
14294;SDS011;7231;59.370;18.016;2023-12-29T09:29:31;4.97;;;2.08;;
14294;SDS011;7231;59.370;18.016;2023-12-29T09:31:59;7.70;;;2.35;;
14294;SDS011;7231;59.370;18.016;2023-12-29T09:34:27;9.90;;;2.17;;
14294;SDS011;7231;59.370;18.016;2023-12-29T09:36:58;12.27;;;2.40;;
14294;SDS011;7231;59.370;18.016;2023-12-29T09:39:26;12.52;;;2.72;;
14294;SDS011;7231;59.370;18.016;2023-12-29T09:41:58;9.63;;;3.00;;
14294;SDS011;7231;59.370;18.016;2023-12-29T09:44:28;11.60;;;2.85;;
14294;SDS011;7231;59.370;18.016;2023-12-29T09:47:00;14.30;;;2.92;;
14294;SDS011;7231;59.370;18.016;2023-12-29T09:49:30;8.70;;;2.30;;
14294;SDS011;7231;59.370;18.016;2023-12-29T09:52:06;10.20;;;2.22;;
14294;SDS011;7231;59.370;18.016;2023-12-29T09:54:36;14.50;;;2.42;;
14294;SDS011;7231;59.370;18.016;2023-12-29T09:57:06;6.97;;;1.80;;
14294;SDS011;7231;59.370;18.016;2023-12-29T09:59:36;13.05;;;2.30;;
14294;SDS011;7231;59.370;18.016;2023-12-29T10:02:11;10.40;;;2.42;;
14294;SDS011;7231;59.370;18.016;2023-12-29T10:04:41;15.13;;;2.30;;
14294;SDS011;7231;59.370;18.016;2023-12-29T10:07:13;11.77;;;2.33;;
14294;SDS011;7231;59.370;18.016;2023-12-29T10:09:46;12.48;;;2.42;;
14294;SDS011;7231;59.370;18.016;2023-12-29T10:12:18;9.75;;;2.17;;
14294;SDS011;7231;59.370;18.016;2023-12-29T10:14:51;11.93;;;2.08;;
14294;SDS011;7231;59.370;18.016;2023-12-29T10:17:27;9.23;;;2.30;;
14294;SDS011;7231;59.370;18.016;2023-12-29T10:20:07;10.40;;;2.00;;
14294;SDS011;7231;59.370;18.016;2023-12-29T10:22:48;8.43;;;2.08;;
14294;SDS011;7231;59.370;18.016;2023-12-29T10:25:21;9.18;;;2.13;;
14294;SDS011;7231;59.370;18.016;2023-12-29T10:27:51;13.20;;;2.22;;
14294;SDS011;7231;59.370;18.016;2023-12-29T10:30:19;8.07;;;2.00;;
14294;SDS011;7231;59.370;18.016;2023-12-29T10:32:59;12.50;;;2.38;;
14294;SDS011;7231;59.370;18.016;2023-12-29T10:35:30;15.40;;;2.15;;
14294;SDS011;7231;59.370;18.016;2023-12-29T10:38:09;9.63;;;2.70;;
14294;SDS011;7231;59.370;18.016;2023-12-29T10:40:38;12.32;;;2.88;;
14294;SDS011;7231;59.370;18.016;2023-12-29T10:43:09;13.98;;;2.50;;
14294;SDS011;7231;59.370;18.016;2023-12-29T10:45:37;13.40;;;2.53;;
14294;SDS011;7231;59.370;18.016;2023-12-29T10:48:06;13.70;;;2.75;;
14294;SDS011;7231;59.370;18.016;2023-12-29T10:50:42;11.68;;;2.38;;
14294;SDS011;7231;59.370;18.016;2023-12-29T10:53:13;13.55;;;2.35;;
14294;SDS011;7231;59.370;18.016;2023-12-29T10:55:43;12.15;;;2.30;;
14294;SDS011;7231;59.370;18.016;2023-12-29T10:58:12;17.30;;;2.88;;
14294;SDS011;7231;59.370;18.016;2023-12-29T11:00:43;15.32;;;3.50;;
14294;SDS011;7231;59.370;18.016;2023-12-29T11:03:12;11.95;;;2.60;;
14294;SDS011;7231;59.370;18.016;2023-12-29T11:05:43;11.60;;;2.95;;
14294;SDS011;7231;59.370;18.016;2023-12-29T11:08:16;15.10;;;2.63;;
14294;SDS011;7231;59.370;18.016;2023-12-29T11:10:45;11.35;;;2.45;;
14294;SDS011;7231;59.370;18.016;2023-12-29T11:13:15;15.65;;;2.35;;
14294;SDS011;7231;59.370;18.016;2023-12-29T11:15:46;11.38;;;2.00;;
14294;SDS011;7231;59.370;18.016;2023-12-29T11:18:16;11.00;;;2.63;;
14294;SDS011;7231;59.370;18.016;2023-12-29T11:20:45;20.08;;;2.88;;
14294;SDS011;7231;59.370;18.016;2023-12-29T11:23:15;12.77;;;3.10;;
14294;SDS011;7231;59.370;18.016;2023-12-29T11:25:44;11.50;;;2.70;;
14294;SDS011;7231;59.370;18.016;2023-12-29T11:28:13;13.45;;;2.38;;
14294;SDS011;7231;59.370;18.016;2023-12-29T11:30:42;15.05;;;2.88;;
14294;SDS011;7231;59.370;18.016;2023-12-29T11:33:12;11.80;;;2.50;;
14294;SDS011;7231;59.370;18.016;2023-12-29T11:35:45;17.25;;;3.15;;
14294;SDS011;7231;59.370;18.016;2023-12-29T11:38:23;14.52;;;3.63;;
14294;SDS011;7231;59.370;18.016;2023-12-29T11:40:59;12.18;;;2.55;;
14294;SDS011;7231;59.370;18.016;2023-12-29T11:43:33;14.70;;;3.00;;
14294;SDS011;7231;59.370;18.016;2023-12-29T11:46:02;12.45;;;2.53;;
14294;SDS011;7231;59.370;18.016;2023-12-29T11:51:29;14.48;;;3.03;;
14294;SDS011;7231;59.370;18.016;2023-12-29T11:54:03;15.27;;;3.35;;
14294;SDS011;7231;59.370;18.016;2023-12-29T11:56:34;13.48;;;3.08;;
14294;SDS011;7231;59.370;18.016;2023-12-29T11:59:12;16.45;;;2.83;;
14294;SDS011;7231;59.370;18.016;2023-12-29T12:01:41;19.58;;;3.85;;
14294;SDS011;7231;59.370;18.016;2023-12-29T12:07:02;14.45;;;2.85;;
14294;SDS011;7231;59.370;18.016;2023-12-29T12:09:32;15.15;;;3.17;;
14294;SDS011;7231;59.370;18.016;2023-12-29T12:12:01;19.58;;;3.60;;
14294;SDS011;7231;59.370;18.016;2023-12-29T12:14:47;16.27;;;3.50;;
14294;SDS011;7231;59.370;18.016;2023-12-29T12:17:29;16.80;;;3.65;;
14294;SDS011;7231;59.370;18.016;2023-12-29T12:20:02;13.88;;;3.60;;
14294;SDS011;7231;59.370;18.016;2023-12-29T12:22:34;18.65;;;2.83;;
14294;SDS011;7231;59.370;18.016;2023-12-29T12:25:07;17.40;;;3.30;;
14294;SDS011;7231;59.370;18.016;2023-12-29T12:27:36;16.83;;;3.33;;
14294;SDS011;7231;59.370;18.016;2023-12-29T12:30:06;14.43;;;3.05;;
14294;SDS011;7231;59.370;18.016;2023-12-29T12:32:37;17.88;;;3.42;;
14294;SDS011;7231;59.370;18.016;2023-12-29T12:35:13;18.38;;;3.60;;
14294;SDS011;7231;59.370;18.016;2023-12-29T12:37:46;13.85;;;3.13;;
14294;SDS011;7231;59.370;18.016;2023-12-29T12:40:25;20.92;;;4.55;;
14294;SDS011;7231;59.370;18.016;2023-12-29T12:42:54;17.65;;;3.30;;
14294;SDS011;7231;59.370;18.016;2023-12-29T12:45:23;13.52;;;3.22;;
14294;SDS011;7231;59.370;18.016;2023-12-29T12:47:58;19.08;;;3.30;;
14294;SDS011;7231;59.370;18.016;2023-12-29T12:50:30;21.02;;;4.22;;
14294;SDS011;7231;59.370;18.016;2023-12-29T12:52:58;21.55;;;3.75;;
14294;SDS011;7231;59.370;18.016;2023-12-29T12:55:31;22.25;;;3.78;;
14294;SDS011;7231;59.370;18.016;2023-12-29T12:58:02;27.23;;;4.32;;
14294;SDS011;7231;59.370;18.016;2023-12-29T13:00:31;19.85;;;3.53;;
14294;SDS011;7231;59.370;18.016;2023-12-29T13:03:00;18.77;;;3.03;;
14294;SDS011;7231;59.370;18.016;2023-12-29T13:05:29;13.95;;;3.22;;
14294;SDS011;7231;59.370;18.016;2023-12-29T13:07:58;17.33;;;3.60;;
14294;SDS011;7231;59.370;18.016;2023-12-29T13:10:27;25.83;;;4.70;;
14294;SDS011;7231;59.370;18.016;2023-12-29T13:12:58;19.92;;;3.83;;
14294;SDS011;7231;59.370;18.016;2023-12-29T13:15:47;16.33;;;3.83;;
14294;SDS011;7231;59.370;18.016;2023-12-29T13:18:16;21.17;;;4.05;;
14294;SDS011;7231;59.370;18.016;2023-12-29T13:21:07;26.25;;;4.65;;
14294;SDS011;7231;59.370;18.016;2023-12-29T13:23:36;17.40;;;3.25;;
14294;SDS011;7231;59.370;18.016;2023-12-29T13:26:05;21.50;;;3.65;;
14294;SDS011;7231;59.370;18.016;2023-12-29T13:29:26;18.58;;;3.60;;
14294;SDS011;7231;59.370;18.016;2023-12-29T13:31:58;10.13;;;3.45;;
14294;SDS011;7231;59.370;18.016;2023-12-29T13:34:32;19.85;;;3.65;;
14294;SDS011;7231;59.370;18.016;2023-12-29T13:37:05;13.93;;;3.67;;
14294;SDS011;7231;59.370;18.016;2023-12-29T13:39:44;20.38;;;3.85;;
14294;SDS011;7231;59.370;18.016;2023-12-29T13:42:20;22.20;;;3.60;;
14294;SDS011;7231;59.370;18.016;2023-12-29T13:44:52;15.90;;;3.25;;
14294;SDS011;7231;59.370;18.016;2023-12-29T13:47:37;20.83;;;4.07;;
14294;SDS011;7231;59.370;18.016;2023-12-29T13:50:12;16.88;;;4.03;;
14294;SDS011;7231;59.370;18.016;2023-12-29T13:52:44;25.67;;;4.50;;
14294;SDS011;7231;59.370;18.016;2023-12-29T13:55:47;24.08;;;4.55;;
14294;SDS011;7231;59.370;18.016;2023-12-29T13:58:55;14.02;;;3.38;;
14294;SDS011;7231;59.370;18.016;2023-12-29T14:01:36;16.65;;;4.03;;
14294;SDS011;7231;59.370;18.016;2023-12-29T14:05:09;22.52;;;3.90;;
14294;SDS011;7231;59.370;18.016;2023-12-29T14:08:05;24.48;;;4.90;;
14294;SDS011;7231;59.370;18.016;2023-12-29T14:10:37;25.35;;;4.45;;
14294;SDS011;7231;59.370;18.016;2023-12-29T14:13:15;16.88;;;4.55;;
14294;SDS011;7231;59.370;18.016;2023-12-29T14:15:45;19.92;;;4.45;;
14294;SDS011;7231;59.370;18.016;2023-12-29T14:18:26;20.30;;;4.63;;
14294;SDS011;7231;59.370;18.016;2023-12-29T14:21:21;26.13;;;4.93;;
14294;SDS011;7231;59.370;18.016;2023-12-29T14:24:58;17.63;;;4.32;;
14294;SDS011;7231;59.370;18.016;2023-12-29T14:27:29;16.10;;;4.28;;
14294;SDS011;7231;59.370;18.016;2023-12-29T14:29:57;23.60;;;9.57;;
14294;SDS011;7231;59.370;18.016;2023-12-29T14:32:29;16.42;;;4.20;;
14294;SDS011;7231;59.370;18.016;2023-12-29T14:34:59;22.00;;;4.25;;
14294;SDS011;7231;59.370;18.016;2023-12-29T14:37:39;18.38;;;3.53;;
14294;SDS011;7231;59.370;18.016;2023-12-29T14:40:10;30.67;;;4.95;;
14294;SDS011;7231;59.370;18.016;2023-12-29T14:42:39;16.90;;;4.40;;
14294;SDS011;7231;59.370;18.016;2023-12-29T14:45:07;27.98;;;4.80;;
14294;SDS011;7231;59.370;18.016;2023-12-29T14:47:37;19.17;;;4.25;;
14294;SDS011;7231;59.370;18.016;2023-12-29T14:50:07;19.83;;;4.40;;
14294;SDS011;7231;59.370;18.016;2023-12-29T14:52:36;18.80;;;4.15;;
14294;SDS011;7231;59.370;18.016;2023-12-29T14:55:04;19.75;;;4.85;;
14294;SDS011;7231;59.370;18.016;2023-12-29T14:57:58;19.15;;;4.22;;
14294;SDS011;7231;59.370;18.016;2023-12-29T15:00:50;24.13;;;4.20;;
14294;SDS011;7231;59.370;18.016;2023-12-29T15:03:18;19.55;;;4.18;;
14294;SDS011;7231;59.370;18.016;2023-12-29T15:05:49;20.02;;;4.45;;
14294;SDS011;7231;59.370;18.016;2023-12-29T15:08:56;22.42;;;4.53;;